createdAt,value
2023-06-17T08:46:07.652Z,101239.91
2023-06-17T08:48:36.422Z,101240.03
2023-06-17T08:51:04.336Z,101244.22
2023-06-17T08:53:31.330Z,101242.38
2023-06-17T08:55:58.633Z,101248.03
2023-06-17T08:58:25.432Z,101237.13
2023-06-17T09:00:52.293Z,101229.34
2023-06-17T09:03:22.898Z,101240.91
2023-06-17T09:05:52.900Z,101237.97
2023-06-17T09:08:20.180Z,101248.16
2023-06-17T09:10:46.909Z,101248.31
2023-06-17T09:13:13.838Z,101251.50
2023-06-17T09:15:44.652Z,101253.94
2023-06-17T09:18:11.625Z,101256.41
2023-06-17T09:20:38.453Z,101251.78
2023-06-17T09:23:05.240Z,101243.38
2023-06-17T09:25:34.800Z,101250.69
2023-06-17T09:30:31.233Z,101255.03
2023-06-17T09:32:58.005Z,101252.53
2023-06-17T09:35:24.788Z,101254.75
2023-06-17T09:38:03.465Z,101247.75
2023-06-17T09:40:33.665Z,101244.59
2023-06-17T09:43:16.444Z,101250.59
2023-06-17T09:45:51.297Z,101242.97
2023-06-17T09:48:18.753Z,101244.28
2023-06-17T09:50:45.734Z,101244.09
2023-06-17T09:53:14.987Z,101251.13
2023-06-17T09:55:42.768Z,101250.72
2023-06-17T09:58:10.050Z,101244.31
2023-06-17T10:00:37.282Z,101248.63
2023-06-17T10:03:05.340Z,101243.72
2023-06-17T10:05:32.204Z,101247.16
2023-06-17T10:07:59.258Z,101242.28
2023-06-17T10:10:26.901Z,101240.34
2023-06-17T10:12:57.829Z,101236.34
2023-06-17T10:15:25.453Z,101238.03
2023-06-17T10:17:53.916Z,101240.81
2023-06-17T10:20:23.175Z,101230.41
2023-06-17T10:22:55.724Z,101228.31
2023-06-17T10:25:22.517Z,101233.19
2023-06-17T10:27:49.251Z,101232.97
2023-06-17T10:30:44.614Z,101235.53
2023-06-17T10:33:12.452Z,101235.72
2023-06-17T10:35:44.522Z,101224.47
2023-06-17T10:38:30.848Z,101214.25
2023-06-17T10:40:58.258Z,101215.50
2023-06-17T10:43:25.232Z,101217.41
2023-06-17T10:45:58.182Z,101217.22
2023-06-17T10:48:34.804Z,101211.69
2023-06-17T10:51:12.080Z,101211.69
2023-06-17T10:53:38.915Z,101208.91
2023-06-17T10:56:08.086Z,101211.69
2023-06-17T10:58:36.381Z,101202.31
2023-06-17T11:01:07.782Z,101196.78
2023-06-17T11:03:35.816Z,101202.31
2023-06-17T11:06:06.941Z,101201.47
2023-06-17T11:08:36.366Z,101191.22
2023-06-17T11:11:21.128Z,101192.97
2023-06-17T11:13:54.333Z,101186.56
2023-06-17T11:16:21.150Z,101184.00
2023-06-17T11:18:50.751Z,101184.00
2023-06-17T11:21:18.629Z,101182.94
2023-06-17T11:23:45.610Z,101178.47
2023-06-17T11:26:13.224Z,101180.16
2023-06-17T11:28:44.992Z,101175.50
2023-06-17T11:31:11.807Z,101175.28
2023-06-17T11:33:40.427Z,101177.38
2023-06-17T11:36:10.978Z,101170.81
2023-06-17T11:38:39.130Z,101166.97
2023-06-17T11:41:05.993Z,101160.59
2023-06-17T11:43:33.079Z,101161.44
2023-06-17T11:46:00.415Z,101160.59
2023-06-17T11:48:33.931Z,101162.50
2023-06-17T11:51:01.020Z,101152.06
2023-06-17T11:53:39.390Z,101155.50
2023-06-17T11:56:09.967Z,101151.44
2023-06-17T11:58:39.400Z,101149.38
2023-06-17T12:01:06.707Z,101154.47
2023-06-17T12:03:34.203Z,101145.56
2023-06-17T12:06:01.198Z,101147.06
2023-06-17T12:08:38.617Z,101150.91
2023-06-17T12:11:08.372Z,101147.09
2023-06-17T12:13:42.899Z,101146.69
2023-06-17T12:16:24.371Z,101144.59
2023-06-17T12:18:53.020Z,101144.59
2023-06-17T12:21:24.539Z,101144.19
2023-06-17T12:23:54.246Z,101142.50
2023-06-17T12:26:24.972Z,101138.63
2023-06-17T12:28:52.273Z,101130.13
2023-06-17T12:31:19.393Z,101138.25
2023-06-17T12:33:47.844Z,101137.19
2023-06-17T12:36:15.082Z,101130.56
2023-06-17T12:38:41.771Z,101108.28
2023-06-17T12:41:08.597Z,101124.00
2023-06-17T12:43:35.859Z,101119.34
2023-06-17T12:46:02.722Z,101116.59
2023-06-17T12:48:30.888Z,101109.31
2023-06-17T12:50:58.155Z,101107.59
2023-06-17T12:53:25.037Z,101107.59
2023-06-17T12:55:52.174Z,101098.44
2023-06-17T12:58:18.859Z,101099.28
2023-06-17T13:00:45.586Z,101095.47
2023-06-17T13:03:13.777Z,101097.19
2023-06-17T13:05:42.022Z,101093.56
2023-06-17T13:08:09.702Z,101092.50
2023-06-17T13:10:36.553Z,101094.44
2023-06-17T13:13:03.247Z,101095.06
2023-06-17T13:15:31.265Z,101087.81
2023-06-17T13:17:58.135Z,101089.53
2023-06-17T13:20:25.256Z,101085.69
2023-06-17T13:22:52.600Z,101092.94
2023-06-17T13:25:19.707Z,101090.19
2023-06-17T13:27:46.875Z,101086.53
2023-06-17T13:30:14.072Z,101082.72
2023-06-17T13:32:41.311Z,101092.75
2023-06-17T13:35:08.457Z,101085.28
2023-06-17T13:37:35.510Z,101088.06
2023-06-17T13:40:02.442Z,101092.50
2023-06-17T13:42:29.496Z,101087.41
2023-06-17T13:44:57.838Z,101087.41
2023-06-17T13:47:24.858Z,101091.72
2023-06-17T13:49:51.764Z,101089.59
2023-06-17T13:52:18.559Z,101084.03
2023-06-17T13:54:45.302Z,101088.13
2023-06-17T13:57:14.935Z,101077.06
2023-06-17T13:59:42.619Z,101086.22
2023-06-17T14:02:10.006Z,101084.31
2023-06-17T14:04:36.820Z,101081.56
2023-06-17T14:07:03.822Z,101079.44
2023-06-17T14:09:30.778Z,101081.13
2023-06-17T14:11:57.604Z,101082.84
2023-06-17T14:14:24.348Z,101076.44
2023-06-17T14:16:51.188Z,101082.00
2023-06-17T14:19:18.116Z,101075.56
2023-06-17T14:21:56.432Z,101082.19
2023-06-17T14:24:23.663Z,101079.44
2023-06-17T14:27:11.255Z,101072.16
2023-06-17T14:29:38.446Z,101070.47
2023-06-17T14:32:05.519Z,101074.28
2023-06-17T14:34:32.188Z,101068.75
2023-06-17T14:36:59.145Z,101077.06
2023-06-17T14:39:25.864Z,101077.06
2023-06-17T14:41:52.552Z,101072.56
2023-06-17T14:44:19.297Z,101068.91
2023-06-17T14:46:46.002Z,101070.84
2023-06-17T14:49:12.760Z,101067.03
2023-06-17T14:51:39.572Z,101070.84
2023-06-17T14:54:06.346Z,101061.50
2023-06-17T14:56:34.028Z,101065.31
2023-06-17T14:59:03.744Z,101059.75
2023-06-17T15:01:35.281Z,101065.31
2023-06-17T15:04:03.481Z,101056.16
2023-06-17T15:06:30.561Z,101054.22
2023-06-17T15:09:26.696Z,101054.22
2023-06-17T15:12:05.159Z,101051.66
2023-06-17T15:14:35.473Z,101046.97
2023-06-17T15:17:03.241Z,101049.72
2023-06-17T15:19:31.978Z,101041.41
2023-06-17T15:21:58.808Z,101043.16
2023-06-17T15:24:25.927Z,101048.31
2023-06-17T15:26:53.317Z,101043.22
2023-06-17T15:29:20.069Z,101035.53
2023-06-17T15:31:46.862Z,101047.06
2023-06-17T15:34:13.648Z,101044.53
2023-06-17T15:36:41.501Z,101041.53
2023-06-17T15:39:18.799Z,101046.66
2023-06-17T15:41:50.450Z,101053.47
2023-06-17T15:44:17.466Z,101045.81
2023-06-17T15:46:44.859Z,101044.56
2023-06-17T15:49:12.193Z,101040.28
2023-06-17T15:51:39.706Z,101040.94
2023-06-17T15:54:07.137Z,101037.75
2023-06-17T15:56:37.543Z,101048.44
2023-06-17T15:59:05.134Z,101039.03
2023-06-17T16:01:32.160Z,101032.22
2023-06-17T16:03:59.157Z,101042.03
2023-06-17T16:06:43.744Z,101039.88
2023-06-17T16:09:10.480Z,101036.06
2023-06-17T16:11:37.367Z,101033.94
2023-06-17T16:14:04.079Z,101033.50
2023-06-17T16:16:30.834Z,101029.66
2023-06-17T16:18:57.549Z,101028.38
2023-06-17T16:21:24.269Z,101022.84
2023-06-17T16:23:51.027Z,101022.63
2023-06-17T16:26:17.766Z,101027.13
2023-06-17T16:28:44.421Z,101024.97
2023-06-17T16:31:11.125Z,101022.88
2023-06-17T16:33:37.872Z,101019.06
2023-06-17T16:36:04.807Z,101015.41
2023-06-17T16:38:31.508Z,101016.91
2023-06-17T16:40:58.219Z,101007.50
2023-06-17T16:43:27.597Z,101007.50
2023-06-17T16:45:54.388Z,101012.84
2023-06-17T16:48:21.075Z,101018.19
2023-06-17T16:50:47.830Z,101006.03
2023-06-17T16:53:17.670Z,101012.22
2023-06-17T16:55:44.487Z,101011.34
2023-06-17T16:58:11.164Z,101018.41
2023-06-17T17:00:37.893Z,101007.94
2023-06-17T17:03:04.972Z,101002.41
2023-06-17T17:05:33.658Z,101002.41
2023-06-17T17:08:02.012Z,101011.34
2023-06-17T17:10:28.686Z,101007.53
2023-06-17T17:12:55.646Z,101007.53
2023-06-17T17:15:22.918Z,101009.22
2023-06-17T17:17:49.821Z,101003.69
2023-06-17T17:20:16.933Z,101016.50
2023-06-17T17:22:43.936Z,101007.09
2023-06-17T17:25:11.986Z,101015.19
2023-06-17T17:27:38.762Z,101015.19
2023-06-17T17:30:06.457Z,101017.75
2023-06-17T17:32:33.676Z,101015.63
2023-06-17T17:35:00.592Z,101010.06
2023-06-17T17:37:28.589Z,101013.47
2023-06-17T17:39:55.316Z,101016.25
2023-06-17T17:42:22.111Z,101009.66
2023-06-17T17:44:48.783Z,101008.56
2023-06-17T17:47:15.654Z,101011.34
2023-06-17T17:49:42.462Z,101018.59
2023-06-17T17:52:09.120Z,101020.28
2023-06-17T17:54:37.902Z,101014.75
2023-06-17T17:57:10.017Z,101014.53
2023-06-17T17:59:36.749Z,101007.09
2023-06-17T18:02:03.600Z,101015.16
2023-06-17T18:04:30.302Z,101014.31
2023-06-17T18:06:58.715Z,101016.91
2023-06-17T18:09:27.043Z,101021.59
2023-06-17T18:11:53.735Z,101016.03
2023-06-17T18:14:21.570Z,101018.56
2023-06-17T18:16:48.255Z,101025.00
2023-06-17T18:19:16.067Z,101011.75
2023-06-17T18:21:43.125Z,101020.09
2023-06-17T18:24:09.942Z,101013.47
2023-06-17T18:26:37.512Z,101011.75
2023-06-17T18:29:04.379Z,101011.75
2023-06-17T18:31:31.494Z,101019.00
2023-06-17T18:33:58.296Z,101020.72
2023-06-17T18:36:25.088Z,101019.66
2023-06-17T18:38:51.842Z,101022.44
2023-06-17T18:41:18.499Z,101016.91
2023-06-17T18:43:45.424Z,101018.59
2023-06-17T18:46:12.285Z,101017.53
2023-06-17T18:48:39.272Z,101022.00
2023-06-17T18:51:06.156Z,101025.84
2023-06-17T18:53:32.902Z,101017.53
2023-06-17T18:55:59.996Z,101020.09
2023-06-17T18:58:26.921Z,101023.72
2023-06-17T19:00:53.802Z,101024.56
2023-06-17T19:03:20.676Z,101021.56
2023-06-17T19:05:47.415Z,101025.41
2023-06-17T19:08:14.078Z,101015.19
2023-06-17T19:10:43.878Z,101027.13
2023-06-17T19:13:10.693Z,101021.56
2023-06-17T19:15:39.733Z,101021.56
2023-06-17T19:18:07.359Z,101022.41
2023-06-17T19:20:34.183Z,101026.03
2023-06-17T19:23:01.063Z,101024.13
2023-06-17T19:25:28.193Z,101029.69
2023-06-17T19:27:54.964Z,101028.38
2023-06-17T19:30:21.933Z,101012.81
2023-06-17T19:32:48.933Z,101025.59
2023-06-17T19:35:16.121Z,101020.06
2023-06-17T19:37:42.879Z,101028.38
2023-06-17T19:40:10.222Z,101020.69
2023-06-17T19:42:36.946Z,101020.69
2023-06-17T19:45:04.018Z,101014.28
2023-06-17T19:47:31.092Z,101015.13
2023-06-17T19:49:57.924Z,101026.25
2023-06-17T19:52:24.906Z,101020.69
2023-06-17T19:54:52.445Z,101016.03
2023-06-17T19:57:19.212Z,101014.94
2023-06-17T19:59:46.017Z,101017.69
2023-06-17T20:02:15.169Z,101024.09
2023-06-17T20:04:42.054Z,101016.88
2023-06-17T20:07:08.829Z,101022.19
2023-06-17T20:09:35.545Z,101024.75
2023-06-17T20:12:02.346Z,101023.03
2023-06-17T20:14:29.065Z,101029.44
2023-06-17T20:16:55.770Z,101025.81
2023-06-17T20:19:22.470Z,101032.00
2023-06-17T20:21:49.225Z,101031.16
2023-06-17T20:24:15.984Z,101040.31
2023-06-17T20:26:42.729Z,101029.22
2023-06-17T20:29:09.560Z,101040.13
2023-06-17T20:31:39.265Z,101032.84
2023-06-17T20:34:06.578Z,101031.78
2023-06-17T20:36:33.231Z,101023.69
2023-06-17T20:39:00.748Z,101022.63
2023-06-17T20:41:29.640Z,101026.44
2023-06-17T20:43:56.397Z,101029.22
2023-06-17T20:46:23.286Z,101027.53
2023-06-17T20:48:50.064Z,101026.66
2023-06-17T20:51:19.508Z,101034.16
2023-06-17T20:53:46.487Z,101032.41
2023-06-17T20:56:13.196Z,101024.09
2023-06-17T20:58:39.976Z,101033.31
2023-06-17T21:01:06.845Z,101036.91
2023-06-17T21:03:33.922Z,101022.00
2023-06-17T21:06:01.000Z,101016.66
2023-06-17T21:08:27.829Z,101022.00
2023-06-17T21:10:54.512Z,101022.00
2023-06-17T21:13:21.300Z,101018.13
2023-06-17T21:15:52.101Z,101023.69
2023-06-17T21:18:22.188Z,101027.53
2023-06-17T21:20:48.870Z,101014.72
2023-06-17T21:23:16.025Z,101013.41
2023-06-17T21:25:42.810Z,101014.28
2023-06-17T21:28:09.575Z,101008.75
2023-06-17T21:30:36.785Z,101008.75
2023-06-17T21:33:06.489Z,101011.34
2023-06-17T21:35:33.240Z,101007.88
2023-06-17T21:38:00.126Z,101009.59
2023-06-17T21:40:26.969Z,101008.75
2023-06-17T21:42:53.643Z,101009.59
2023-06-17T21:45:21.679Z,101012.56
2023-06-17T21:47:51.346Z,101007.88
2023-06-17T21:50:18.092Z,101009.78
2023-06-17T21:52:44.851Z,101012.56
2023-06-17T21:55:14.604Z,101010.88
2023-06-17T21:57:42.952Z,101013.41
2023-06-17T22:00:10.829Z,101012.56
2023-06-17T22:02:41.623Z,101008.97
2023-06-17T22:05:09.069Z,101012.56
2023-06-17T22:07:36.149Z,101012.56
2023-06-17T22:10:03.099Z,101014.50
2023-06-17T22:12:30.328Z,101005.34
2023-06-17T22:14:57.144Z,101010.88
2023-06-17T22:17:23.924Z,101005.34
2023-06-17T22:19:50.922Z,101010.88
2023-06-17T22:22:17.581Z,101010.88
2023-06-17T22:24:44.343Z,101006.38
2023-06-17T22:27:14.214Z,101005.34
2023-06-17T22:29:41.142Z,101008.13
2023-06-17T22:32:11.292Z,100998.06
2023-06-17T22:34:41.032Z,100998.06
2023-06-17T22:37:07.722Z,100992.50
2023-06-17T22:39:35.144Z,100997.22
2023-06-17T22:42:01.902Z,101003.63
2023-06-17T22:44:28.546Z,101003.63
2023-06-17T22:46:57.943Z,101000.84
2023-06-17T22:49:24.611Z,101002.56
2023-06-17T22:51:51.313Z,101010.22
2023-06-17T22:54:18.014Z,101009.16
2023-06-17T22:56:47.986Z,101011.09
2023-06-17T22:59:15.557Z,101007.44
2023-06-17T23:01:42.809Z,101013.00
2023-06-17T23:04:09.571Z,101003.81
2023-06-17T23:06:36.243Z,101011.94
2023-06-17T23:09:02.940Z,101006.38
2023-06-17T23:11:29.613Z,101011.94
2023-06-17T23:13:56.380Z,101004.66
2023-06-17T23:16:23.408Z,101014.72
2023-06-17T23:18:55.819Z,101013.00
2023-06-17T23:21:23.282Z,101004.66
2023-06-17T23:23:50.385Z,101002.78
2023-06-17T23:26:17.598Z,100999.13
2023-06-17T23:28:44.763Z,100993.56
2023-06-17T23:31:11.838Z,100991.66
2023-06-17T23:33:39.460Z,100986.13
2023-06-17T23:36:07.787Z,100985.25
2023-06-17T23:38:36.296Z,100985.25
2023-06-17T23:41:03.281Z,100985.25
2023-06-17T23:43:29.976Z,100984.41
2023-06-17T23:45:56.759Z,100988.03
2023-06-17T23:48:23.797Z,100985.25
2023-06-17T23:50:51.416Z,100981.63
2023-06-17T23:53:19.311Z,100979.69
2023-06-17T23:55:46.334Z,100979.69
2023-06-17T23:58:13.060Z,100979.69
